Time;durP1;ratioP1;P1;durP2;ratioP2;P2;SDS_P1;SDS_P2;PMS_P1;PMS_P2;Temp;Humidity;BMP_temperature;BMP_pressure;BME280_temperature;BME280_humidity;BME280_pressure;Samples;Min_cycle;Max_cycle;Signal;HPM_P1;HPM_P2
2022/01/14 00:00:00;;;;;;;44.87;34.40;;;0.70;99.90;;;;;;5066579;28;20482;-68
2022/01/14 00:02:27;;;;;;;59.67;38.87;;;0.70;99.90;;;;;;5074048;28;20511;-68
2022/01/14 00:04:54;;;;;;;39.37;35.37;;;0.60;99.90;;;;;;5069271;28;21012;-68
2022/01/14 00:07:21;;;;;;;40.43;36.27;;;0.50;99.90;;;;;;5071207;28;20466;-69
2022/01/14 00:09:48;;;;;;;42.57;38.23;;;0.60;99.90;;;;;;5070193;28;20458;-68
2022/01/14 00:12:19;;;;;;;60.03;36.67;;;0.60;99.90;;;;;;5069499;28;20466;-68
2022/01/14 00:14:58;;;;;;;45.70;39.40;;;0.70;99.90;;;;;;5072197;28;20467;-68
2022/01/14 00:17:25;;;;;;;46.43;34.87;;;0.60;99.90;;;;;;5072589;28;20471;-69
2022/01/14 00:19:51;;;;;;;42.77;33.20;;;0.50;99.90;;;;;;5071266;28;20484;-69
2022/01/14 00:22:19;;;;;;;54.33;30.70;;;0.50;99.90;;;;;;5072603;28;20504;-69
2022/01/14 00:33:08;;;;;;;51.27;25.80;;;0.30;99.90;;;;;;5072850;28;20459;-69
2022/01/14 00:35:37;;;;;;;28.47;25.53;;;0.30;99.90;;;;;;5074519;28;20484;-69
2022/01/14 00:38:04;;;;;;;29.13;26.20;;;0.10;99.90;;;;;;5072257;28;20549;-69
2022/01/14 00:40:31;;;;;;;30.87;25.90;;;0.00;99.90;;;;;;5065804;28;20463;-69
2022/01/14 00:42:58;;;;;;;31.57;27.27;;;0.00;99.90;;;;;;5070821;28;20808;-69
2022/01/14 00:45:27;;;;;;;28.23;25.53;;;0.00;99.90;;;;;;5075798;28;20492;-69
2022/01/14 00:47:53;;;;;;;29.20;26.30;;;0.00;99.90;;;;;;5071067;28;20465;-69
2022/01/14 00:50:20;;;;;;;29.33;26.70;;;0.00;99.90;;;;;;5071129;28;20458;-69
2022/01/14 00:52:48;;;;;;;30.20;27.00;;;0.00;99.90;;;;;;5071417;28;20474;-69
2022/01/14 00:55:18;;;;;;;29.97;27.10;;;0.00;99.90;;;;;;5070581;28;20493;-68
2022/01/14 01:00:33;;;;;;;31.20;28.03;;;0.30;99.90;;;;;;5074002;28;20977;-69
2022/01/14 01:03:01;;;;;;;33.07;28.50;;;0.30;99.90;;;;;;5069692;28;20542;-68
2022/01/14 01:05:29;;;;;;;31.47;28.33;;;0.40;99.90;;;;;;5068914;28;20489;-68
2022/01/14 01:08:03;;;;;;;32.70;29.33;;;0.40;99.90;;;;;;5073693;28;20465;-69
2022/01/14 01:10:30;;;;;;;32.73;29.43;;;0.40;99.90;;;;;;5069047;28;20487;-69
2022/01/14 01:13:03;;;;;;;30.23;27.30;;;0.40;99.90;;;;;;5072893;28;21029;-68
2022/01/14 01:15:31;;;;;;;30.27;27.27;;;0.40;99.90;;;;;;5075142;28;20461;-69
2022/01/14 01:17:58;;;;;;;31.07;27.90;;;0.30;99.90;;;;;;5069829;28;20462;-69
2022/01/14 01:20:25;;;;;;;31.20;28.10;;;0.30;99.90;;;;;;5070184;28;20495;-69
2022/01/14 01:22:54;;;;;;;32.10;29.20;;;0.30;99.90;;;;;;5075014;28;20469;-70
2022/01/14 01:25:24;;;;;;;31.47;28.47;;;0.40;99.90;;;;;;5064269;28;21086;-69
2022/01/14 01:27:53;;;;;;;33.93;30.23;;;0.40;99.90;;;;;;5079165;28;20497;-69
2022/01/14 01:30:49;;;;;;;34.80;30.40;;;0.40;99.90;;;;;;5071882;28;20465;-69
2022/01/14 01:33:17;;;;;;;33.23;27.97;;;0.40;99.90;;;;;;5071296;28;20555;-69
2022/01/14 01:35:43;;;;;;;31.60;28.53;;;0.30;99.90;;;;;;5076414;28;20472;-70
2022/01/14 01:38:15;;;;;;;32.77;29.67;;;0.30;99.90;;;;;;5073256;28;20882;-70
2022/01/14 01:40:43;;;;;;;33.27;29.67;;;0.30;99.90;;;;;;5071914;28;20520;-69
2022/01/14 01:43:11;;;;;;;32.87;28.57;;;0.30;99.90;;;;;;5075475;28;20544;-70
2022/01/14 01:45:38;;;;;;;32.03;28.83;;;0.30;99.90;;;;;;5078516;28;20489;-69
2022/01/14 01:48:06;;;;;;;32.73;29.43;;;0.30;99.90;;;;;;5074115;28;20466;-69
2022/01/14 01:50:37;;;;;;;34.47;29.63;;;0.30;99.90;;;;;;5076445;28;20982;-69
2022/01/14 01:53:05;;;;;;;34.37;31.00;;;0.30;99.90;;;;;;5075166;28;20462;-70
2022/01/14 01:55:32;;;;;;;33.70;30.10;;;0.30;99.90;;;;;;5075246;28;20466;-70
2022/01/14 01:57:59;;;;;;;41.53;33.97;;;0.20;99.90;;;;;;5076741;28;20467;-70
2022/01/14 02:00:28;;;;;;;37.87;34.17;;;0.30;99.90;;;;;;5074444;28;20472;-70
2022/01/14 02:02:56;;;;;;;36.57;33.10;;;0.40;99.90;;;;;;5073869;28;20466;-70
2022/01/14 02:05:24;;;;;;;36.43;33.00;;;0.50;99.90;;;;;;5074593;28;20555;-70
2022/01/14 02:07:52;;;;;;;37.37;33.60;;;0.50;99.90;;;;;;5074853;28;20468;-70
2022/01/14 02:10:21;;;;;;;39.33;31.10;;;0.50;99.90;;;;;;5071430;28;20465;-70
2022/01/14 02:12:51;;;;;;;35.90;31.33;;;0.50;99.90;;;;;;5071732;28;20945;-70
2022/01/14 02:15:42;;;;;;;35.83;32.17;;;0.40;99.90;;;;;;5067946;28;21034;-70
2022/01/14 02:23:52;;;;;;;34.73;31.40;;;0.40;99.90;;;;;;5078715;28;20467;-70
2022/01/14 02:26:21;;;;;;;36.33;30.63;;;0.40;99.90;;;;;;5075950;28;20497;-70
2022/01/14 02:28:48;;;;;;;36.00;32.20;;;0.30;99.90;;;;;;5075407;28;20465;-70
2022/01/14 02:31:15;;;;;;;34.80;28.77;;;0.30;99.90;;;;;;5073264;28;20453;-70
2022/01/14 02:33:42;;;;;;;35.47;31.77;;;0.20;99.90;;;;;;5076344;28;20972;-70
2022/01/14 02:36:12;;;;;;;34.93;31.50;;;0.20;99.90;;;;;;5077718;28;20803;-70
2022/01/14 02:38:39;;;;;;;36.70;32.83;;;0.20;99.90;;;;;;5067395;28;20474;-70
2022/01/14 02:41:06;;;;;;;38.67;34.03;;;0.20;99.90;;;;;;5075583;28;20555;-70
2022/01/14 02:43:34;;;;;;;35.50;32.20;;;0.20;99.90;;;;;;5074056;28;20467;-70
2022/01/14 02:46:01;;;;;;;38.57;32.07;;;0.20;99.90;;;;;;5074165;28;20487;-71
2022/01/14 02:48:30;;;;;;;36.00;32.50;;;0.20;99.90;;;;;;5074862;28;20465;-70
2022/01/14 02:51:01;;;;;;;37.00;33.00;;;0.20;99.90;;;;;;5069853;28;20504;-70
2022/01/14 02:53:43;;;;;;;34.67;30.90;;;0.30;99.90;;;;;;5071852;28;20473;-70
2022/01/14 02:56:15;;;;;;;34.53;30.93;;;0.20;99.90;;;;;;5071855;28;20564;-71
2022/01/14 02:58:43;;;;;;;34.80;30.73;;;0.20;99.90;;;;;;5072971;28;20492;-70
2022/01/14 03:01:11;;;;;;;37.20;32.83;;;0.20;99.90;;;;;;5075628;28;20918;-71
2022/01/14 03:03:43;;;;;;;38.30;34.30;;;0.30;99.90;;;;;;5075774;28;20458;-70
2022/01/14 03:06:10;;;;;;;36.83;32.83;;;0.30;99.90;;;;;;5072713;28;20494;-71
2022/01/14 03:08:39;;;;;;;42.37;34.93;;;0.20;99.90;;;;;;5075179;28;20961;-70
2022/01/14 03:11:09;;;;;;;41.13;33.00;;;0.20;99.90;;;;;;5076908;28;20471;-71
2022/01/14 03:13:36;;;;;;;35.70;31.87;;;0.10;99.90;;;;;;5072537;28;20466;-71
2022/01/14 03:16:04;;;;;;;36.77;33.07;;;0.20;99.90;;;;;;5076067;28;20484;-70
2022/01/14 03:18:39;;;;;;;37.90;32.40;;;0.30;99.90;;;;;;5070940;28;20468;-70
2022/01/14 03:21:11;;;;;;;37.50;33.47;;;0.20;99.90;;;;;;5071896;28;20466;-71
2022/01/14 03:23:45;;;;;;;36.80;32.83;;;0.20;99.90;;;;;;5067433;28;20558;-71
2022/01/14 03:26:12;;;;;;;45.10;33.90;;;0.10;99.90;;;;;;5074414;28;20487;-71
2022/01/14 03:28:39;;;;;;;36.93;32.90;;;0.20;99.90;;;;;;5074297;28;21108;-71
2022/01/14 03:31:07;;;;;;;39.23;32.43;;;0.10;99.90;;;;;;5073517;28;20462;-71
2022/01/14 03:33:34;;;;;;;38.60;31.63;;;0.10;99.90;;;;;;5071811;28;20473;-71
2022/01/14 03:36:01;;;;;;;38.93;34.30;;;0.10;99.90;;;;;;5066685;28;20495;-71
2022/01/14 03:38:28;;;;;;;40.67;33.37;;;0.00;99.90;;;;;;5074189;28;20458;-71
2022/01/14 03:40:57;;;;;;;42.33;35.53;;;0.00;99.90;;;;;;5073021;28;20477;-71
2022/01/14 03:43:23;;;;;;;35.77;32.17;;;0.00;99.90;;;;;;5071768;28;20474;-71
2022/01/14 03:45:50;;;;;;;35.70;31.83;;;0.00;99.90;;;;;;5077364;28;20492;-71
2022/01/14 03:48:19;;;;;;;43.80;32.33;;;0.00;99.90;;;;;;5072432;28;20481;-71
2022/01/14 03:50:46;;;;;;;36.07;32.23;;;0.00;99.90;;;;;;5071853;28;20466;-71
2022/01/14 03:53:13;;;;;;;34.37;29.67;;;0.00;99.90;;;;;;5074629;28;20893;-71
2022/01/14 03:55:41;;;;;;;36.33;32.23;;;0.00;99.90;;;;;;5075545;28;20538;-71
2022/01/14 03:58:10;;;;;;;38.80;32.50;;;0.00;99.90;;;;;;5075038;28;20468;-71
2022/01/14 04:00:38;;;;;;;36.23;32.43;;;-0.10;99.90;;;;;;5070201;28;21322;-70
2022/01/14 04:03:07;;;;;;;34.87;30.43;;;0.00;99.90;;;;;;5074710;28;20463;-71
2022/01/14 04:05:34;;;;;;;34.83;30.53;;;0.00;99.90;;;;;;5072046;28;20466;-71
2022/01/14 04:08:01;;;;;;;35.30;31.50;;;-0.10;99.90;;;;;;5070376;28;20470;-71
2022/01/14 04:10:28;;;;;;;38.00;33.97;;;0.00;99.90;;;;;;5070418;28;20463;-71
2022/01/14 04:12:59;;;;;;;34.93;31.27;;;-0.10;99.90;;;;;;5077162;28;20475;-70
2022/01/14 04:15:42;;;;;;;36.40;30.13;;;-0.10;99.90;;;;;;5075580;28;20462;-71
2022/01/14 04:18:13;;;;;;;35.97;32.20;;;-0.10;99.90;;;;;;5070763;28;20504;-71
2022/01/14 04:20:40;;;;;;;33.47;30.07;;;-0.20;99.90;;;;;;5065675;28;21085;-71
2022/01/14 04:23:08;;;;;;;36.60;30.93;;;-0.20;99.90;;;;;;5078433;28;20479;-71
2022/01/14 04:25:36;;;;;;;32.87;29.70;;;-0.30;99.90;;;;;;5074205;28;20976;-71
2022/01/14 04:28:04;;;;;;;34.53;29.67;;;-0.30;99.90;;;;;;5073756;28;20516;-71
2022/01/14 04:30:34;;;;;;;33.23;29.67;;;-0.30;99.90;;;;;;5068640;28;20915;-71
2022/01/14 04:33:02;;;;;;;45.53;30.70;;;-0.30;99.90;;;;;;5074594;28;20480;-70
2022/01/14 04:35:29;;;;;;;42.83;32.40;;;-0.30;99.90;;;;;;5071400;28;20461;-71
2022/01/14 04:37:57;;;;;;;33.57;29.70;;;-0.30;99.90;;;;;;5068298;28;20462;-70
2022/01/14 04:40:23;;;;;;;35.30;30.77;;;-0.30;99.90;;;;;;5072360;28;20469;-71
2022/01/14 04:42:52;;;;;;;37.63;31.23;;;-0.30;99.90;;;;;;5066344;28;20496;-71
2022/01/14 04:45:29;;;;;;;37.03;33.03;;;-0.40;99.90;;;;;;5068977;28;21018;-71
2022/01/14 04:47:57;;;;;;;38.10;32.43;;;-0.40;99.90;;;;;;5064776;28;20498;-70
2022/01/14 04:50:25;;;;;;;34.40;30.70;;;-0.40;99.90;;;;;;5080353;28;20478;-71
2022/01/14 04:52:53;;;;;;;37.17;30.50;;;-0.40;99.90;;;;;;5071888;28;20464;-71
2022/01/14 04:55:23;;;;;;;35.70;31.87;;;-0.40;99.90;;;;;;5069203;28;20470;-70
2022/01/14 04:57:52;;;;;;;35.53;31.73;;;-0.40;99.90;;;;;;5074678;28;20501;-71
2022/01/14 05:00:21;;;;;;;36.20;30.20;;;-0.40;99.90;;;;;;5057526;28;20497;-71
2022/01/14 05:02:51;;;;;;;34.00;30.40;;;-0.50;99.90;;;;;;5046974;28;21104;-72
2022/01/14 05:05:21;;;;;;;37.27;31.67;;;-0.50;99.90;;;;;;5044965;28;20453;-71
2022/01/14 05:07:49;;;;;;;34.53;30.80;;;-0.60;99.90;;;;;;5046071;28;20486;-70
2022/01/14 05:10:23;;;;;;;38.10;31.33;;;-0.60;99.90;;;;;;5046734;28;21125;-71
2022/01/14 05:12:50;;;;;;;41.33;29.00;;;-0.60;99.90;;;;;;5047785;28;20470;-71
2022/01/14 05:15:19;;;;;;;34.70;29.53;;;-0.60;99.90;;;;;;5046728;28;20481;-71
2022/01/14 05:17:46;;;;;;;36.53;31.10;;;-0.70;99.90;;;;;;5047205;28;20463;-71
2022/01/14 05:20:14;;;;;;;36.87;32.87;;;-0.70;99.90;;;;;;5047686;28;20498;-71
2022/01/14 05:22:44;;;;;;;36.90;31.33;;;-0.70;99.90;;;;;;5043954;28;20604;-71
2022/01/14 05:25:13;;;;;;;38.23;31.60;;;-0.70;99.90;;;;;;5046820;28;20465;-71
2022/01/14 05:27:42;;;;;;;37.50;30.37;;;-0.60;99.90;;;;;;5045872;28;21094;-71
2022/01/14 05:30:11;;;;;;;36.43;32.67;;;-0.60;99.90;;;;;;5045107;28;20492;-71
2022/01/14 05:32:45;;;;;;;36.47;32.57;;;-0.40;99.90;;;;;;5045044;28;20446;-71
2022/01/14 05:35:13;;;;;;;38.47;32.03;;;-0.30;99.90;;;;;;5045158;28;20503;-71
2022/01/14 05:37:39;;;;;;;35.90;31.93;;;-0.20;99.90;;;;;;5044249;28;21042;-71
2022/01/14 05:40:09;;;;;;;41.67;33.63;;;-0.30;99.90;;;;;;5046921;28;20467;-71
2022/01/14 05:42:36;;;;;;;38.67;34.27;;;-0.30;99.90;;;;;;5046724;28;20508;-71
2022/01/14 05:45:04;;;;;;;37.43;31.60;;;-0.30;99.90;;;;;;5047328;28;20822;-71
2022/01/14 05:47:31;;;;;;;38.63;33.20;;;-0.30;99.90;;;;;;5046772;28;20857;-71
2022/01/14 05:49:57;;;;;;;44.50;33.43;;;-0.10;99.90;;;;;;5046805;28;20467;-71
2022/01/14 05:52:24;;;;;;;39.43;34.67;;;0.10;99.90;;;;;;5046609;28;20481;-71
2022/01/14 05:54:53;;;;;;;50.43;38.33;;;0.10;99.90;;;;;;5045251;28;20531;-71
2022/01/14 05:57:22;;;;;;;47.10;35.67;;;0.20;99.90;;;;;;5046776;28;21007;-71
2022/01/14 05:59:49;;;;;;;43.53;36.70;;;0.30;99.90;;;;;;5047274;28;20499;-71
2022/01/14 06:02:16;;;;;;;42.83;37.33;;;0.40;99.90;;;;;;5046192;28;20476;-71
2022/01/14 06:04:45;;;;;;;60.33;36.97;;;0.50;99.90;;;;;;5046076;28;20474;-71
2022/01/14 06:07:12;;;;;;;45.03;35.40;;;0.50;99.90;;;;;;5045535;28;20508;-71
2022/01/14 06:09:39;;;;;;;38.47;32.97;;;0.40;99.90;;;;;;5045758;28;20762;-71
2022/01/14 06:12:06;;;;;;;40.97;32.30;;;0.30;99.90;;;;;;5045284;28;20921;-71
2022/01/14 06:14:35;;;;;;;47.90;35.50;;;0.10;99.90;;;;;;5046342;28;20477;-71
2022/01/14 06:17:01;;;;;;;45.07;34.43;;;0.10;99.90;;;;;;5045799;28;20465;-71
2022/01/14 06:19:29;;;;;;;48.80;35.90;;;0.00;99.90;;;;;;5047184;28;20498;-71
2022/01/14 06:21:56;;;;;;;37.10;33.10;;;0.00;99.90;;;;;;5045859;28;21063;-71
2022/01/14 06:24:23;;;;;;;41.80;33.20;;;-0.10;99.90;;;;;;5049113;28;20486;-71
2022/01/14 06:26:50;;;;;;;39.23;33.50;;;-0.20;99.90;;;;;;5049567;28;20481;-71
2022/01/14 06:29:17;;;;;;;41.90;33.07;;;-0.30;99.90;;;;;;5049942;28;21215;-71
2022/01/14 06:31:46;;;;;;;36.63;32.80;;;-0.30;99.90;;;;;;5048911;28;20466;-71
2022/01/14 06:34:14;;;;;;;54.30;33.67;;;-0.30;99.90;;;;;;5049739;28;21180;-71
2022/01/14 06:36:41;;;;;;;47.30;35.20;;;-0.10;99.90;;;;;;5049938;28;20478;-71
2022/01/14 06:39:09;;;;;;;130.57;37.63;;;0.00;99.90;;;;;;5049640;28;20468;-71
2022/01/14 06:41:37;;;;;;;83.17;34.40;;;0.10;99.90;;;;;;5049559;28;20546;-71
2022/01/14 06:44:04;;;;;;;149.97;39.97;;;0.20;99.90;;;;;;5048064;28;20469;-71
2022/01/14 06:46:31;;;;;;;222.70;41.67;;;0.30;99.90;;;;;;5048754;28;20477;-71
2022/01/14 06:48:59;;;;;;;157.00;41.00;;;0.40;99.90;;;;;;5049469;28;21035;-70
2022/01/14 06:51:26;;;;;;;163.90;42.10;;;0.50;99.90;;;;;;5048660;28;20478;-71
2022/01/14 06:53:52;;;;;;;99.07;40.43;;;0.60;99.90;;;;;;5050224;28;20457;-70
2022/01/14 06:56:20;;;;;;;225.67;44.93;;;0.70;99.90;;;;;;5068569;28;20562;-71
2022/01/14 06:58:47;;;;;;;230.47;46.40;;;0.80;99.90;;;;;;5078193;28;20485;-69
2022/01/14 07:01:14;;;;;;;181.53;43.73;;;0.80;99.90;;;;;;5053057;28;20481;-70
2022/01/14 07:03:41;;;;;;;224.23;51.53;;;0.90;99.90;;;;;;5046770;28;20605;-70
2022/01/14 07:06:10;;;;;;;238.23;52.87;;;1.00;99.90;;;;;;5046606;28;20841;-70
2022/01/14 07:08:37;;;;;;;229.17;48.87;;;1.10;99.90;;;;;;5047328;28;20498;-70
2022/01/14 07:11:04;;;;;;;244.77;50.20;;;1.10;99.90;;;;;;5045113;28;20472;-70
2022/01/14 07:13:30;;;;;;;214.77;50.13;;;1.20;99.90;;;;;;5045657;28;20463;-70
2022/01/14 07:15:57;;;;;;;227.67;53.03;;;1.20;99.90;;;;;;5045766;28;20466;-69
2022/01/14 07:18:24;;;;;;;175.87;54.00;;;1.20;99.90;;;;;;5046787;28;20477;-70
2022/01/14 07:20:51;;;;;;;142.37;52.20;;;1.20;99.90;;;;;;5020342;28;20478;-70
2022/01/14 07:23:19;;;;;;;271.63;57.00;;;1.20;99.90;;;;;;5020087;28;20456;-71
2022/01/14 07:25:46;;;;;;;212.30;56.13;;;1.30;99.90;;;;;;5018719;28;20565;-70
2022/01/14 07:28:13;;;;;;;240.40;58.07;;;1.30;99.90;;;;;;5019838;28;21054;-71
2022/01/14 07:30:39;;;;;;;172.10;54.07;;;1.40;99.90;;;;;;5020691;28;20483;-70
2022/01/14 07:33:06;;;;;;;276.17;58.30;;;1.40;99.90;;;;;;5018353;28;20467;-70
2022/01/14 07:35:33;;;;;;;248.10;55.90;;;1.40;99.90;;;;;;5027518;28;20474;-70
2022/01/14 07:38:00;;;;;;;285.33;62.20;;;1.50;99.90;;;;;;5041698;28;20566;-70
2022/01/14 07:40:29;;;;;;;273.53;61.97;;;1.50;99.90;;;;;;5036204;28;20476;-70
2022/01/14 07:42:55;;;;;;;232.37;59.13;;;1.50;99.90;;;;;;5022948;28;21116;-70
2022/01/14 07:45:22;;;;;;;199.60;59.40;;;1.50;99.90;;;;;;5020192;28;20475;-70
2022/01/14 07:47:49;;;;;;;320.17;60.10;;;1.60;99.90;;;;;;5019043;28;20572;-70
2022/01/14 07:50:16;;;;;;;352.43;67.50;;;1.60;99.90;;;;;;5020371;28;20464;-70
2022/01/14 07:52:43;;;;;;;317.57;56.97;;;1.60;99.90;;;;;;5018692;28;20467;-71
2022/01/14 07:55:10;;;;;;;372.40;70.17;;;1.60;99.90;;;;;;5020645;28;20456;-71
2022/01/14 07:57:38;;;;;;;310.77;63.70;;;1.60;99.90;;;;;;5019652;28;20464;-71
2022/01/14 08:00:08;;;;;;;305.30;63.10;;;1.60;99.90;;;;;;5020180;28;20483;-71
2022/01/14 08:02:35;;;;;;;406.40;70.30;;;1.60;99.90;;;;;;5018277;28;20479;-71
2022/01/14 08:05:03;;;;;;;307.23;63.07;;;1.50;99.90;;;;;;5018043;28;21245;-72
2022/01/14 08:07:32;;;;;;;310.70;63.77;;;1.50;99.90;;;;;;5016646;28;20496;-72
2022/01/14 08:09:59;;;;;;;392.57;67.87;;;1.50;99.90;;;;;;5014379;28;20471;-72
2022/01/14 08:12:26;;;;;;;308.47;60.60;;;1.50;99.90;;;;;;5017169;28;21231;-72
2022/01/14 08:14:54;;;;;;;275.10;60.40;;;1.50;99.90;;;;;;5015967;28;20448;-72
2022/01/14 08:17:21;;;;;;;400.37;67.67;;;1.60;99.90;;;;;;5016518;28;20456;-71
2022/01/14 08:19:49;;;;;;;189.17;58.37;;;1.60;99.90;;;;;;5033809;28;20537;-72
2022/01/14 08:22:15;;;;;;;337.73;65.27;;;1.60;99.90;;;;;;5063418;28;20496;-71
2022/01/14 08:24:42;;;;;;;346.50;64.40;;;1.60;99.90;;;;;;5067212;28;20493;-71
2022/01/14 08:27:09;;;;;;;313.77;67.00;;;1.70;99.90;;;;;;5074857;28;20497;-72
2022/01/14 08:29:36;;;;;;;377.27;63.53;;;1.80;99.90;;;;;;5073978;28;20517;-72
2022/01/14 08:32:05;;;;;;;289.20;62.67;;;1.70;99.90;;;;;;5048014;28;20896;-71
2022/01/14 08:34:32;;;;;;;332.10;67.87;;;1.70;99.90;;;;;;5045569;28;20462;-71
2022/01/14 08:36:59;;;;;;;269.60;60.77;;;1.70;99.90;;;;;;5045398;28;20930;-71
2022/01/14 08:39:26;;;;;;;207.40;60.53;;;1.80;99.90;;;;;;5045121;28;20458;-71
2022/01/14 08:41:55;;;;;;;349.60;56.80;;;1.80;99.90;;;;;;5045331;28;20477;-71
2022/01/14 08:44:22;;;;;;;203.17;58.57;;;1.80;99.90;;;;;;5045571;28;20505;-71
2022/01/14 08:46:49;;;;;;;211.23;56.83;;;1.80;99.90;;;;;;5045261;28;20474;-71
2022/01/14 08:49:17;;;;;;;244.17;71.20;;;1.80;99.90;;;;;;5045817;28;20495;-71
2022/01/14 08:51:44;;;;;;;316.17;70.23;;;1.80;99.90;;;;;;5045913;28;20852;-71
2022/01/14 08:54:10;;;;;;;251.33;62.77;;;1.80;99.90;;;;;;5045015;28;20471;-71
2022/01/14 08:56:37;;;;;;;260.63;62.10;;;1.80;99.90;;;;;;5045145;28;20573;-72
2022/01/14 08:59:05;;;;;;;83.37;51.90;;;1.70;99.90;;;;;;5045206;28;21315;-71
2022/01/14 09:01:31;;;;;;;171.13;55.70;;;1.70;99.90;;;;;;5044618;28;20467;-71
2022/01/14 09:03:58;;;;;;;244.27;55.13;;;1.80;99.90;;;;;;5045896;28;20563;-72
2022/01/14 09:06:27;;;;;;;357.33;59.57;;;1.70;99.90;;;;;;5046518;28;20471;-71
2022/01/14 09:08:54;;;;;;;258.73;59.70;;;1.70;99.90;;;;;;5045010;28;22139;-72
2022/01/14 09:11:21;;;;;;;96.67;57.63;;;1.80;99.90;;;;;;5044510;28;20960;-72
2022/01/14 09:13:48;;;;;;;76.27;59.23;;;1.80;99.90;;;;;;5045082;28;20469;-72
2022/01/14 09:16:17;;;;;;;68.07;55.83;;;1.90;99.90;;;;;;5044724;28;20470;-72
2022/01/14 09:18:44;;;;;;;434.37;68.57;;;1.80;99.90;;;;;;5040165;28;20819;-72
2022/01/14 09:21:11;;;;;;;180.83;57.30;;;1.80;99.90;;;;;;5058357;28;20455;-72
2022/01/14 09:23:39;;;;;;;226.47;58.50;;;1.90;99.90;;;;;;5057581;28;21066;-72
2022/01/14 09:26:06;;;;;;;142.67;58.07;;;1.90;99.90;;;;;;5045083;28;20466;-71
2022/01/14 09:28:33;;;;;;;70.53;55.97;;;1.90;99.90;;;;;;5044355;28;20497;-72
2022/01/14 09:31:00;;;;;;;89.67;59.47;;;1.90;99.90;;;;;;5044487;28;20817;-72
2022/01/14 09:33:26;;;;;;;122.10;60.50;;;2.00;99.90;;;;;;5045566;28;20455;-72
2022/01/14 09:35:54;;;;;;;77.93;60.70;;;2.00;99.90;;;;;;5044494;28;20482;-71
2022/01/14 09:38:22;;;;;;;71.27;58.90;;;2.10;99.90;;;;;;5044852;28;20459;-72
2022/01/14 09:40:52;;;;;;;66.27;54.57;;;2.10;99.90;;;;;;5045532;28;21577;-72
2022/01/14 09:43:19;;;;;;;72.27;57.70;;;2.10;99.90;;;;;;5043372;28;20475;-72
2022/01/14 09:45:46;;;;;;;67.00;56.00;;;2.20;99.90;;;;;;5044518;28;21429;-71
2022/01/14 09:48:16;;;;;;;70.17;56.30;;;2.30;99.90;;;;;;5044528;28;21438;-72
2022/01/14 09:50:44;;;;;;;67.57;58.43;;;2.40;99.90;;;;;;5046334;28;21125;-72
2022/01/14 09:53:13;;;;;;;65.73;54.70;;;2.50;99.90;;;;;;5042682;28;20836;-72
2022/01/14 09:55:40;;;;;;;62.20;53.00;;;2.60;99.90;;;;;;5043360;28;20467;-71
2022/01/14 09:58:08;;;;;;;71.37;51.70;;;2.70;99.90;;;;;;5047750;28;20462;-70
2022/01/14 10:00:36;;;;;;;65.97;51.20;;;2.70;99.90;;;;;;5067412;28;20479;-70
2022/01/14 10:03:19;;;;;;;71.97;52.10;;;2.90;99.90;;;;;;5069223;28;20458;-70
2022/01/14 10:05:51;;;;;;;76.70;51.83;;;3.00;99.90;;;;;;5067615;28;20470;-70
2022/01/14 10:08:21;;;;;;;74.53;54.30;;;2.90;99.90;;;;;;5046959;28;20852;-70
2022/01/14 10:10:50;;;;;;;75.23;55.30;;;2.90;99.90;;;;;;5047422;28;20825;-70
2022/01/14 10:13:21;;;;;;;75.20;53.37;;;3.00;99.90;;;;;;5043638;28;20471;-69
2022/01/14 10:15:50;;;;;;;86.87;59.23;;;3.20;99.90;;;;;;5058883;28;20927;-70
2022/01/14 10:18:19;;;;;;;92.23;58.67;;;3.40;99.90;;;;;;5074095;28;20462;-70
2022/01/14 10:20:46;;;;;;;88.27;54.90;;;3.50;99.90;;;;;;5041302;28;20481;-70
2022/01/14 10:23:13;;;;;;;108.73;57.63;;;3.60;99.90;;;;;;5043303;28;20467;-70
2022/01/14 10:25:41;;;;;;;91.87;54.27;;;3.50;99.90;;;;;;5044598;28;20573;-70
2022/01/14 10:28:21;;;;;;;97.30;56.10;;;3.50;99.90;;;;;;5044229;28;20525;-69
2022/01/14 10:30:49;;;;;;;95.93;55.50;;;3.50;99.90;;;;;;5041912;28;20477;-70
2022/01/14 10:33:20;;;;;;;219.60;56.47;;;3.50;99.90;;;;;;5041176;28;21075;-70
2022/01/14 10:35:48;;;;;;;98.77;51.83;;;3.60;99.90;;;;;;5045575;28;20688;-70
2022/01/14 10:38:16;;;;;;;114.53;55.80;;;3.50;99.90;;;;;;5044978;28;20529;-70
2022/01/14 10:40:44;;;;;;;99.87;57.70;;;3.50;99.90;;;;;;5044247;28;20463;-70
2022/01/14 10:43:21;;;;;;;101.67;54.73;;;3.50;99.90;;;;;;5055113;28;20475;-70
2022/01/14 10:45:49;;;;;;;96.50;56.50;;;3.70;99.90;;;;;;5076562;28;20963;-70
2022/01/14 10:48:18;;;;;;;102.97;56.33;;;3.80;99.90;;;;;;5057872;28;20578;-70
2022/01/14 10:50:47;;;;;;;91.30;52.50;;;3.90;99.90;;;;;;5047724;28;20796;-70
2022/01/14 10:53:17;;;;;;;85.70;50.27;;;4.00;99.90;;;;;;5047870;28;20470;-70
2022/01/14 10:55:46;;;;;;;159.77;51.20;;;4.00;99.90;;;;;;5045775;28;20829;-70
2022/01/14 10:58:15;;;;;;;148.43;49.60;;;4.10;99.90;;;;;;5046182;28;21305;-69
2022/01/14 11:00:46;;;;;;;91.23;47.93;;;4.10;99.90;;;;;;5048409;28;20458;-70
2022/01/14 11:03:13;;;;;;;199.10;46.50;;;4.10;99.90;;;;;;5048600;28;20505;-70
2022/01/14 11:05:41;;;;;;;190.67;49.90;;;4.20;99.90;;;;;;5046701;28;20455;-70
2022/01/14 11:08:08;;;;;;;183.93;48.80;;;4.30;99.90;;;;;;5054800;28;20996;-69
2022/01/14 11:10:38;;;;;;;140.33;49.67;;;4.30;99.90;;;;;;5069850;28;21049;-70
2022/01/14 11:13:07;;;;;;;204.17;53.97;;;4.30;99.90;;;;;;5056988;28;20462;-70
2022/01/14 11:15:35;;;;;;;253.27;55.70;;;4.40;99.90;;;;;;5047893;28;20811;-69
2022/01/14 11:18:07;;;;;;;181.53;52.17;;;4.40;99.90;;;;;;5047478;28;20497;-70
2022/01/14 11:23:14;;;;;;;225.00;50.53;;;4.40;99.90;;;;;;5047959;28;20493;-70
2022/01/14 11:23:21;;;;;;;191.47;51.87;;;4.60;99.90;;;;;;5047271;28;20892;-70
2022/01/14 11:25:53;;;;;;;222.67;53.33;;;4.60;99.90;;;;;;5047452;28;21463;-70
2022/01/14 11:28:33;;;;;;;110.07;45.50;;;4.70;99.90;;;;;;5047370;28;21043;-70
2022/01/14 11:31:00;;;;;;;133.73;48.27;;;4.60;99.90;;;;;;5049163;28;20460;-69
2022/01/14 11:33:43;;;;;;;176.83;52.40;;;4.60;99.90;;;;;;5048796;28;20474;-70
2022/01/14 11:36:11;;;;;;;115.03;48.23;;;4.60;99.90;;;;;;5047930;28;20459;-70
2022/01/14 11:38:41;;;;;;;121.40;48.07;;;4.70;99.90;;;;;;5046493;28;20455;-70
2022/01/14 11:41:09;;;;;;;177.47;48.60;;;4.80;99.90;;;;;;5048378;28;20476;-70
2022/01/14 11:43:44;;;;;;;199.37;52.57;;;4.70;99.90;;;;;;5048250;28;20470;-70
2022/01/14 11:46:13;;;;;;;126.63;49.83;;;4.90;99.90;;;;;;5048211;28;20473;-70
2022/01/14 11:48:46;;;;;;;265.37;55.90;;;5.20;99.90;;;;;;5046774;28;20500;-70
2022/01/14 11:51:15;;;;;;;175.23;53.07;;;5.10;99.90;;;;;;5048359;28;20459;-70
2022/01/14 11:53:52;;;;;;;117.90;50.10;;;5.00;99.90;;;;;;5049122;28;20467;-70
2022/01/14 11:56:46;;;;;;;124.20;50.47;;;5.20;99.90;;;;;;5048911;28;21063;-70
2022/01/14 11:59:38;;;;;;;271.93;59.33;;;5.50;99.90;;;;;;5046898;28;20491;-70
2022/01/14 12:02:39;;;;;;;131.10;51.07;;;5.70;99.90;;;;;;5046499;28;20825;-71
2022/01/14 12:05:25;;;;;;;267.27;52.87;;;5.80;99.90;;;;;;5046699;28;20458;-70
2022/01/14 12:08:15;;;;;;;184.20;46.50;;;5.40;99.90;;;;;;5048126;28;20480;-70
2022/01/14 12:10:44;;;;;;;260.07;50.57;;;5.50;99.90;;;;;;5047068;28;20496;-71
2022/01/14 12:13:23;;;;;;;175.43;50.27;;;5.60;99.90;;;;;;5048542;28;20479;-69
2022/01/14 12:15:57;;;;;;;217.97;53.77;;;5.70;99.90;;;;;;5048359;28;20476;-69
2022/01/14 12:19:17;;;;;;;279.90;55.87;;;5.60;99.90;;;;;;5047976;28;20475;-69
2022/01/14 12:21:58;;;;;;;137.30;50.90;;;5.70;99.90;;;;;;5047543;28;20510;-69
2022/01/14 12:24:36;;;;;;;288.57;54.97;;;5.80;99.90;;;;;;5048081;28;20461;-70
2022/01/14 12:27:22;;;;;;;194.70;51.20;;;5.60;99.90;;;;;;5047654;28;20459;-70
2022/01/14 12:29:50;;;;;;;262.87;57.10;;;5.60;99.90;;;;;;5048693;28;20600;-69
2022/01/14 12:32:19;;;;;;;237.97;57.07;;;5.40;99.90;;;;;;5047238;28;20466;-71
2022/01/14 12:35:01;;;;;;;133.33;47.97;;;5.20;99.90;;;;;;5048134;28;20466;-69
2022/01/14 12:37:31;;;;;;;168.17;51.57;;;5.40;99.90;;;;;;5048342;28;20468;-70
2022/01/14 12:40:05;;;;;;;377.73;61.93;;;5.60;99.90;;;;;;5047870;28;20463;-70
2022/01/14 12:42:32;;;;;;;335.27;62.70;;;5.30;99.90;;;;;;5046787;28;20464;-70
2022/01/14 12:45:00;;;;;;;415.83;74.07;;;5.30;99.90;;;;;;5046395;28;21495;-70
2022/01/14 12:47:32;;;;;;;222.47;56.27;;;5.40;99.90;;;;;;5047631;28;20696;-70
2022/01/14 12:50:02;;;;;;;108.77;48.37;;;5.70;99.90;;;;;;5048069;28;20589;-70
2022/01/14 12:52:38;;;;;;;129.77;50.40;;;5.80;99.90;;;;;;5048166;28;20459;-71
2022/01/14 12:55:06;;;;;;;137.53;49.07;;;5.90;99.90;;;;;;5047877;28;20474;-70
2022/01/14 12:57:33;;;;;;;98.30;48.50;;;6.10;99.90;;;;;;5047715;28;20511;-70